Clearwater, Kansas
Current Conditions -  °F | °C
As of 8:53 AM on Wednesday 26 Nov 2014 (Local Time) from KICT Reporting Station
Few Clouds Few Clouds  
Wind Chill: 38°   Ceiling: Unl
Heat Index: 46°   Visibility: 10mi
Dew Point: 28°   Wind: 20mph
Humidity: 50%   Direction: 330°NNW
Pressure: 30.09"   Gusts: 31mph
Location:  37.5°N, 97.5°W
Report Text: KICT 261453Z 33017G27KT 10SM FEW130 FEW200 08/M02 A3009 RMK AO2 PK WND 32027/1448 SLP193 T00781022 53025
Loading
Personal Weather Stations






























Interactive Weather Map New forecast layout! Learn more

10-Day Weather Forecast

Advertisements
Track Severe Weather on mobile